Time;durP1;ratioP1;P1;durP2;ratioP2;P2;SDS_P1;SDS_P2;PMS_P1;PMS_P2;Temp;Humidity;BMP_temperature;BMP_pressure;BME280_temperature;BME280_humidity;BME280_pressure;Samples;Min_cycle;Max_cycle;Signal;HPM_P1;HPM_P2
2023/03/03 00:00:43;;;;;;;1.92;1.80;;;;;;;4.49;66.56;101456.06;5085973;27;20129;-51
2023/03/03 00:03:16;;;;;;;2.83;1.77;;;;;;;4.50;66.78;101452.72;5090354;28;20130;-50
2023/03/03 00:05:43;;;;;;;2.75;1.73;;;;;;;4.49;66.85;101456.06;5084772;28;20094;-51
2023/03/03 00:08:10;;;;;;;2.60;1.70;;;;;;;4.52;66.96;101456.22;5087853;28;20058;-48
2023/03/03 00:10:38;;;;;;;5.93;2.67;;;;;;;4.52;66.84;101455.34;5082482;28;20083;-47
2023/03/03 00:13:16;;;;;;;3.70;2.28;;;;;;;4.54;67.03;101461.41;5075428;27;20784;-48
2023/03/03 00:15:43;;;;;;;2.15;1.95;;;;;;;4.56;67.00;101459.81;5072324;28;20116;-47
2023/03/03 00:18:21;;;;;;;3.55;1.90;;;;;;;4.56;66.93;101462.38;5078189;28;20093;-47
2023/03/03 00:20:53;;;;;;;3.13;2.30;;;;;;;4.55;66.94;101460.59;5072557;28;20098;-53
2023/03/03 00:23:29;;;;;;;2.22;2.10;;;;;;;4.55;66.66;101461.50;5066395;28;20072;-51
2023/03/03 00:25:57;;;;;;;2.55;2.05;;;;;;;4.57;66.92;101459.00;5044511;28;20065;-48
2023/03/03 00:28:27;;;;;;;5.15;2.08;;;;;;;4.54;67.54;101454.63;5068357;28;20048;-44
2023/03/03 00:30:57;;;;;;;2.40;2.20;;;;;;;4.49;66.65;101456.06;5064061;28;20044;-52
2023/03/03 00:36:27;;;;;;;3.45;2.33;;;;;;;4.46;66.98;101451.69;5069501;27;20390;-49
2023/03/03 00:38:56;;;;;;;3.75;2.60;;;;;;;4.47;66.49;101453.47;5023825;28;20053;-47
2023/03/03 00:41:26;;;;;;;2.80;1.98;;;;;;;4.46;66.98;101445.69;5041456;28;20532;-50
2023/03/03 00:43:53;;;;;;;5.25;3.83;;;;;;;4.42;66.86;101449.78;5041452;28;20115;-52
2023/03/03 00:46:22;;;;;;;2.25;2.03;;;;;;;4.40;67.30;101440.28;5040331;28;20045;-48
2023/03/03 00:48:50;;;;;;;2.33;2.13;;;;;;;4.40;66.56;101450.53;5041317;28;20558;-55
2023/03/03 00:53:58;;;;;;;3.38;0.75;;;;;;;4.40;67.08;101445.41;5071218;27;20382;-49
2023/03/03 00:56:26;;;;;;;2.60;0.73;;;;;;;4.41;67.49;101452.28;5015365;28;20053;-46
2023/03/03 00:58:53;;;;;;;8.43;1.33;;;;;;;4.36;67.39;101445.25;5013503;28;20502;-49
2023/03/03 01:01:20;;;;;;;3.25;0.70;;;;;;;4.37;67.42;101452.16;5013369;28;20120;-48
2023/03/03 01:03:47;;;;;;;3.40;2.10;;;;;;;4.40;66.95;101445.41;5014516;28;20056;-49
2023/03/03 01:06:14;;;;;;;3.92;1.42;;;;;;;4.37;67.79;101441.03;5009772;28;20164;-46
2023/03/03 01:08:41;;;;;;;2.08;0.95;;;;;;;4.36;67.63;101440.13;5017039;28;20065;-47
2023/03/03 01:11:12;;;;;;;2.10;0.95;;;;;;;4.35;67.73;101443.50;5014123;28;20644;-45
2023/03/03 01:13:41;;;;;;;3.25;1.48;;;;;;;4.35;68.19;101447.75;5011665;28;20148;-52
2023/03/03 01:16:08;;;;;;;10.45;1.42;;;;;;;4.33;67.70;101439.97;5009815;28;20045;-48
2023/03/03 01:18:36;;;;;;;1.73;1.55;;;;;;;4.31;67.47;101444.19;5016057;28;20049;-46
2023/03/03 01:21:04;;;;;;;1.88;0.70;;;;;;;4.28;68.00;101441.47;5011604;28;20129;-51
2023/03/03 01:23:32;;;;;;;2.88;1.25;;;;;;;4.28;67.30;101441.47;5006253;28;20042;-49
2023/03/03 01:26:01;;;;;;;2.83;1.35;;;;;;;4.28;67.54;101440.59;5009295;28;20049;-51
2023/03/03 01:28:29;;;;;;;1.55;1.05;;;;;;;4.28;67.66;101446.59;5009111;28;20042;-47
2023/03/03 01:31:02;;;;;;;2.90;0.65;;;;;;;4.27;67.50;101439.72;5008831;28;20050;-47
2023/03/03 01:33:33;;;;;;;2.80;0.77;;;;;;;4.27;67.67;101443.97;5007727;28;20084;-49
2023/03/03 01:36:02;;;;;;;5.40;1.02;;;;;;;4.27;67.80;101443.97;5009481;28;20428;-46
2023/03/03 01:38:34;;;;;;;1.80;0.40;;;;;;;4.20;68.04;101447.94;5014159;28;20433;-48
2023/03/03 01:41:02;;;;;;;2.58;1.50;;;;;;;4.19;68.38;101446.19;5012399;28;20057;-47
2023/03/03 01:43:32;;;;;;;1.38;0.73;;;;;;;4.20;67.61;101447.94;5015396;28;20042;-51
2023/03/03 01:48:43;;;;;;;2.05;1.85;;;;;;;4.22;67.96;101451.47;5040214;28;20431;-45
2023/03/03 01:51:20;;;;;;;4.97;3.15;;;;;;;4.21;67.71;101449.69;5020837;28;20080;-49
2023/03/03 01:53:51;;;;;;;3.45;2.30;;;;;;;4.21;68.15;101454.81;5014283;28;20096;-51
2023/03/03 01:56:18;;;;;;;3.15;2.85;;;;;;;4.19;67.59;101453.88;5018906;28;20103;-47
2023/03/03 01:58:51;;;;;;;4.35;2.42;;;;;;;4.17;68.17;101452.94;5020471;28;20045;-48
2023/03/03 02:01:25;;;;;;;3.15;2.28;;;;;;;4.19;68.12;101456.44;5018168;28;20042;-50
2023/03/03 02:03:52;;;;;;;2.17;1.98;;;;;;;4.20;67.92;101460.78;5020596;28;20042;-48
2023/03/03 02:06:24;;;;;;;2.85;2.25;;;;;;;4.22;67.92;101456.59;5019200;28;20548;-49
2023/03/03 02:09:15;;;;;;;2.38;2.17;;;;;;;4.16;68.19;101452.06;5012158;28;20077;-52
2023/03/03 02:11:43;;;;;;;6.03;2.50;;;;;;;4.16;68.02;101456.31;5017889;28;20070;-51
2023/03/03 02:14:11;;;;;;;2.63;2.35;;;;;;;4.19;67.97;101461.59;5012360;28;20045;-53
2023/03/03 02:16:39;;;;;;;2.47;1.88;;;;;;;4.19;68.43;101457.31;5012320;28;20042;-50
2023/03/03 02:19:16;;;;;;;5.60;2.25;;;;;;;4.18;68.07;101459.81;5012663;28;20046;-50
2023/03/03 02:21:43;;;;;;;;;;;;;;;4.13;68.26;101467.31;5016289;28;20540;-51
2023/03/03 02:26:50;;;;;;;6.88;1.10;;;;;;;4.13;68.22;101456.16;5066232;27;20399;-51
2023/03/03 02:29:16;;;;;;;4.40;1.00;;;;;;;4.13;68.34;101458.72;5011364;28;20049;-47
2023/03/03 02:31:43;;;;;;;4.40;1.00;;;;;;;4.13;68.05;101456.16;5011266;28;21302;-52
2023/03/03 02:34:10;;;;;;;2.40;1.35;;;;;;;4.15;68.35;101454.56;5009762;28;20057;-48
2023/03/03 02:36:38;;;;;;;1.63;0.88;;;;;;;4.15;68.25;101463.09;5013870;28;20101;-49
2023/03/03 02:41:52;;;;;;;2.00;1.27;;;;;;;4.15;68.00;101460.53;5093460;27;20393;-48
2023/03/03 02:44:21;;;;;;;1.10;0.70;;;;;;;4.17;68.03;101458.06;5022563;28;20556;-47
2023/03/03 02:46:50;;;;;;;2.50;1.45;;;;;;;4.16;68.24;101456.31;5037393;28;20504;-52
2023/03/03 02:49:21;;;;;;;2.63;1.20;;;;;;;4.15;68.42;101454.56;5046918;28;20099;-52
2023/03/03 02:51:48;;;;;;;2.63;1.08;;;;;;;4.13;68.14;101454.47;5044193;28;20573;-51
2023/03/03 02:54:18;;;;;;;2.10;1.17;;;;;;;4.11;68.20;101456.97;5035087;28;20049;-54
2023/03/03 02:56:44;;;;;;;3.38;1.13;;;;;;;4.11;68.44;101454.41;5042117;28;20079;-46
2023/03/03 02:59:11;;;;;;;2.42;0.88;;;;;;;4.16;67.99;101451.19;5038007;28;20599;-46
2023/03/03 03:01:38;;;;;;;2.55;0.80;;;;;;;4.17;67.93;101458.06;5040727;28;20053;-48
2023/03/03 03:04:08;;;;;;;1.83;0.73;;;;;;;4.15;68.33;101460.53;5020451;28;20073;-45
2023/03/03 03:06:35;;;;;;;1.58;0.93;;;;;;;4.14;68.27;101452.78;5020894;28;20132;-51
2023/03/03 03:09:03;;;;;;;2.47;1.00;;;;;;;4.13;68.36;101458.72;5028440;28;20130;-49
2023/03/03 03:11:29;;;;;;;3.00;1.00;;;;;;;4.08;68.75;101451.69;5048718;28;20473;-50
2023/03/03 03:13:56;;;;;;;1.95;1.55;;;;;;;4.10;68.18;101454.34;5044556;28;20068;-50
2023/03/03 03:16:22;;;;;;;2.78;0.90;;;;;;;4.11;68.06;101461.22;5043363;28;23954;-47
2023/03/03 03:18:49;;;;;;;4.07;0.82;;;;;;;4.14;68.17;101463.03;5030551;28;20058;-46
2023/03/03 03:21:16;;;;;;;1.75;0.88;;;;;;;4.13;68.38;101463.84;5040443;28;20040;-50
2023/03/03 03:23:43;;;;;;;2.33;0.82;;;;;;;4.13;68.22;101463.84;5056293;28;20078;-48
2023/03/03 03:26:09;;;;;;;1.20;0.77;;;;;;;4.10;68.00;101462.91;5067120;28;20136;-50
2023/03/03 03:28:36;;;;;;;2.97;1.42;;;;;;;4.11;68.45;101459.53;5067513;28;20488;-47
2023/03/03 03:31:05;;;;;;;2.88;1.05;;;;;;;4.12;68.70;101460.41;5061524;28;20452;-46
2023/03/03 03:33:32;;;;;;;3.17;1.00;;;;;;;4.12;68.29;101452.69;5060218;28;20172;-51
2023/03/03 03:35:59;;;;;;;1.70;0.95;;;;;;;4.09;68.18;101460.28;5059045;28;20068;-49
2023/03/03 03:38:28;;;;;;;1.42;0.70;;;;;;;4.09;68.26;101456.00;5060667;28;20110;-51
2023/03/03 03:40:55;;;;;;;2.35;1.17;;;;;;;4.05;68.28;101454.13;5056640;28;20134;-49
2023/03/03 03:43:21;;;;;;;2.33;1.00;;;;;;;4.06;67.88;101460.97;5061124;28;20048;-52
2023/03/03 03:45:48;;;;;;;1.65;0.90;;;;;;;4.09;68.33;101461.13;5060455;28;20423;-53
2023/03/03 03:48:16;;;;;;;2.10;1.30;;;;;;;4.08;68.10;101459.38;5057023;28;20045;-51
2023/03/03 03:50:42;;;;;;;3.22;0.85;;;;;;;4.05;68.32;101458.38;5057733;28;20075;-52
2023/03/03 03:53:09;;;;;;;2.40;1.20;;;;;;;4.06;68.07;101447.31;5055763;28;20106;-49
2023/03/03 03:55:36;;;;;;;1.52;1.02;;;;;;;4.05;68.17;101453.25;5043993;28;20049;-45
2023/03/03 03:58:02;;;;;;;1.83;1.08;;;;;;;4.06;68.52;101443.03;5044664;28;20048;-52
2023/03/03 04:00:29;;;;;;;3.38;1.10;;;;;;;4.06;67.99;101445.59;5048520;28;20402;-46
2023/03/03 04:02:56;;;;;;;1.73;0.73;;;;;;;4.07;68.33;101442.25;5053952;28;20114;-48
2023/03/03 04:05:23;;;;;;;1.83;0.50;;;;;;;4.06;68.21;101437.91;5048956;28;20080;-49
2023/03/03 04:07:50;;;;;;;3.63;0.88;;;;;;;4.07;68.33;101444.81;5045605;28;20040;-49
2023/03/03 04:10:17;;;;;;;1.77;0.98;;;;;;;4.06;68.49;101445.59;5047135;28;20045;-50
2023/03/03 04:12:43;;;;;;;2.75;1.08;;;;;;;4.07;68.34;101443.94;5038385;28;20052;-49
2023/03/03 04:15:12;;;;;;;2.67;0.93;;;;;;;4.07;68.03;101447.38;5051317;28;20084;-45
2023/03/03 04:17:39;;;;;;;3.25;0.73;;;;;;;4.03;68.19;101439.47;5055902;28;20053;-52
2023/03/03 04:20:07;;;;;;;1.60;1.15;;;;;;;4.02;68.51;101443.72;5051909;28;20041;-51
2023/03/03 04:22:34;;;;;;;2.25;1.25;;;;;;;3.98;68.58;101449.50;5045619;28;20072;-54
2023/03/03 04:25:04;;;;;;;2.78;1.17;;;;;;;4.00;68.40;101445.34;5045281;28;20051;-51
2023/03/03 04:27:31;;;;;;;3.97;1.40;;;;;;;4.02;68.03;101443.72;5037659;28;20456;-48
2023/03/03 04:29:58;;;;;;;4.30;1.30;;;;;;;4.05;68.41;101450.69;5051120;28;20086;-50
2023/03/03 04:32:25;;;;;;;2.40;1.25;;;;;;;4.04;68.17;101442.09;5047704;28;20041;-45
2023/03/03 04:34:52;;;;;;;2.78;1.42;;;;;;;4.06;68.70;101440.47;5051319;28;20659;-48
2023/03/03 04:37:33;;;;;;;3.17;0.95;;;;;;;4.06;68.20;101437.91;5046826;28;20045;-50
2023/03/03 04:39:59;;;;;;;2.20;0.77;;;;;;;4.06;68.15;101435.34;5049611;28;20083;-52
2023/03/03 04:42:27;;;;;;;5.15;1.45;;;;;;;4.08;68.15;101435.41;5046851;28;20049;-49
2023/03/03 04:44:53;;;;;;;1.85;0.95;;;;;;;4.08;68.29;101438.88;5044564;28;20044;-50
2023/03/03 04:47:20;;;;;;;3.60;1.00;;;;;;;4.06;67.93;101440.47;5046674;28;20867;-48
2023/03/03 04:49:47;;;;;;;4.90;0.90;;;;;;;4.05;68.38;101443.00;5051864;28;20053;-58
2023/03/03 04:52:14;;;;;;;2.15;1.23;;;;;;;4.05;68.24;101448.97;5046079;28;20504;-50
2023/03/03 04:54:40;;;;;;;4.20;0.88;;;;;;;4.05;67.99;101446.41;5048352;28;20627;-49
2023/03/03 04:57:08;;;;;;;2.45;0.80;;;;;;;4.07;68.74;101444.81;5047013;28;20096;-52
2023/03/03 04:59:35;;;;;;;1.73;0.98;;;;;;;4.06;68.17;101449.88;5047679;28;20496;-47
2023/03/03 05:02:03;;;;;;;1.63;0.77;;;;;;;4.02;68.42;101442.84;5044945;28;20581;-49
2023/03/03 05:04:30;;;;;;;2.58;1.02;;;;;;;4.02;68.27;101446.28;5043222;28;20048;-51
2023/03/03 05:06:57;;;;;;;2.33;1.08;;;;;;;4.03;68.05;101455.75;5046122;28;20460;-48
2023/03/03 05:09:23;;;;;;;2.63;1.10;;;;;;;4.01;69.02;101457.34;5049402;28;20068;-46
2023/03/03 05:11:50;;;;;;;4.65;1.33;;;;;;;3.98;69.14;101457.19;5045732;28;20064;-52
2023/03/03 05:14:17;;;;;;;1.63;0.95;;;;;;;3.98;69.17;101462.31;5049570;28;20071;-49
2023/03/03 05:16:44;;;;;;;1.70;0.77;;;;;;;3.96;69.21;101459.69;5048083;28;20075;-47
2023/03/03 05:19:11;;;;;;;1.95;1.25;;;;;;;3.95;69.88;101457.06;5045227;28;20079;-49
2023/03/03 05:21:41;;;;;;;2.95;0.50;;;;;;;3.93;69.67;101463.78;5049991;28;20048;-48
2023/03/03 05:24:10;;;;;;;1.88;1.08;;;;;;;3.92;69.81;101467.19;5039197;28;20053;-48
2023/03/03 05:26:37;;;;;;;1.75;1.35;;;;;;;3.90;69.98;101463.63;5046146;28;20077;-45
2023/03/03 05:29:04;;;;;;;1.17;0.80;;;;;;;3.86;70.26;101463.50;5043028;28;20045;-49
2023/03/03 05:31:31;;;;;;;3.40;1.23;;;;;;;3.84;71.20;101465.13;5047216;28;20048;-49
2023/03/03 05:33:58;;;;;;;1.38;0.98;;;;;;;3.80;70.83;101458.09;5044649;28;20048;-48
2023/03/03 05:36:25;;;;;;;2.08;1.05;;;;;;;3.79;70.65;101460.56;5049803;28;20745;-51
2023/03/03 05:38:51;;;;;;;1.08;0.55;;;;;;;3.78;70.82;101469.09;5051938;28;20079;-49
2023/03/03 05:41:18;;;;;;;2.33;1.13;;;;;;;3.76;71.22;101465.56;5050972;28;20702;-50
2023/03/03 05:43:44;;;;;;;3.35;0.80;;;;;;;3.76;71.13;101458.75;5052131;28;20075;-49
2023/03/03 05:46:11;;;;;;;6.50;1.15;;;;;;;3.75;70.69;101459.53;5041255;28;20045;-47
2023/03/03 05:48:38;;;;;;;2.58;1.10;;;;;;;3.75;70.89;101469.78;5043275;28;20098;-43
2023/03/03 05:51:05;;;;;;;4.57;1.50;;;;;;;3.73;71.14;101458.59;5046683;28;20076;-49
2023/03/03 05:53:31;;;;;;;4.05;1.42;;;;;;;3.72;71.41;101465.41;5045518;28;20102;-47
2023/03/03 05:55:58;;;;;;;2.45;1.23;;;;;;;3.70;71.10;101467.03;5047326;28;20045;-50
2023/03/03 05:58:25;;;;;;;2.45;0.82;;;;;;;3.68;70.86;101472.88;5037711;28;20044;-52
2023/03/03 06:00:52;;;;;;;2.20;1.05;;;;;;;3.68;71.59;101467.75;5044638;28;20041;-49
2023/03/03 06:03:19;;;;;;;3.60;0.80;;;;;;;3.66;71.75;101466.78;5047903;28;20559;-50
2023/03/03 06:05:45;;;;;;;1.65;0.88;;;;;;;3.64;71.31;101470.97;5052810;28;20053;-47
2023/03/03 06:08:12;;;;;;;2.08;0.90;;;;;;;3.64;71.78;101476.97;5053395;28;20076;-48
2023/03/03 06:10:38;;;;;;;1.55;0.80;;;;;;;3.62;72.01;101473.47;5047303;28;20065;-52
2023/03/03 06:13:05;;;;;;;2.20;1.25;;;;;;;3.62;71.46;101476.03;5048305;28;20159;-49
2023/03/03 06:15:31;;;;;;;1.13;0.55;;;;;;;3.63;72.05;101474.31;5046735;28;20068;-47
2023/03/03 06:17:58;;;;;;;2.17;1.00;;;;;;;3.63;71.90;101474.31;5045844;28;20433;-44
2023/03/03 06:20:25;;;;;;;4.32;1.15;;;;;;;3.63;72.06;101474.31;5048265;28;20087;-47
2023/03/03 06:22:51;;;;;;;1.42;0.68;;;;;;;3.62;71.35;101476.03;5040939;28;20128;-48
2023/03/03 06:25:18;;;;;;;4.22;0.85;;;;;;;3.63;71.79;101471.75;5049130;28;20605;-50
2023/03/03 06:27:45;;;;;;;2.55;1.15;;;;;;;3.62;71.90;101468.34;5046488;28;20041;-51
2023/03/03 06:30:12;;;;;;;3.83;1.10;;;;;;;3.63;71.82;101474.31;5048283;28;20068;-50
2023/03/03 06:32:39;;;;;;;4.20;0.70;;;;;;;3.63;71.27;101474.31;5050450;28;20045;-50
2023/03/03 06:35:06;;;;;;;3.38;1.05;;;;;;;3.65;71.38;101478.72;5047813;28;20484;-45
2023/03/03 06:37:32;;;;;;;3.63;0.88;;;;;;;3.65;71.43;101467.59;5036046;28;20875;-47
2023/03/03 06:39:59;;;;;;;2.08;0.80;;;;;;;3.67;71.54;101474.56;5048610;28;20044;-46
2023/03/03 06:42:26;;;;;;;2.05;1.08;;;;;;;3.66;71.31;101479.59;5041584;28;20047;-46
2023/03/03 06:44:52;;;;;;;3.28;1.20;;;;;;;3.66;71.50;101474.47;5044312;28;20045;-48
2023/03/03 06:47:19;;;;;;;2.20;1.20;;;;;;;3.66;71.47;101479.59;5053663;28;20299;-48
2023/03/03 06:49:45;;;;;;;1.65;0.65;;;;;;;3.66;72.00;101484.72;5047252;28;20551;-46
2023/03/03 06:52:19;;;;;;;1.77;1.20;;;;;;;3.66;71.71;101479.59;5043898;28;20108;-44
2023/03/03 06:54:45;;;;;;;2.47;1.02;;;;;;;3.66;71.85;101484.72;5044386;28;20053;-45
2023/03/03 06:57:32;;;;;;;4.00;1.70;;;;;;;3.67;71.67;101487.38;5048909;28;20713;-51
2023/03/03 07:00:19;;;;;;;5.20;1.33;;;;;;;3.69;71.26;101484.88;5037002;28;20496;-52
2023/03/03 07:02:52;;;;;;;3.88;1.42;;;;;;;3.70;71.26;101491.75;5036635;28;20068;-45
2023/03/03 07:05:20;;;;;;;4.25;1.60;;;;;;;3.70;71.56;101491.75;5031304;28;20593;-47
2023/03/03 07:07:46;;;;;;;6.78;1.05;;;;;;;3.70;71.88;101495.22;5036840;28;20554;-46
2023/03/03 07:10:28;;;;;;;4.78;1.20;;;;;;;3.70;71.79;101496.88;5033418;28;20167;-48
2023/03/03 07:13:01;;;;;;;2.95;1.30;;;;;;;3.72;71.20;101496.16;5031331;28;20094;-50
2023/03/03 07:15:33;;;;;;;1.80;0.77;;;;;;;3.73;71.28;101502.16;5036250;28;20049;-52
2023/03/03 07:18:01;;;;;;;2.00;1.38;;;;;;;3.72;71.52;101501.28;5034654;28;20140;-45
2023/03/03 07:20:34;;;;;;;1.55;0.73;;;;;;;3.73;71.16;101512.41;5039694;28;20468;-48
2023/03/03 07:23:23;;;;;;;4.22;1.40;;;;;;;3.73;71.65;101514.97;5033456;28;20064;-48
2023/03/03 07:25:51;;;;;;;3.20;0.93;;;;;;;3.73;70.88;101514.97;5034746;28;20606;-50
2023/03/03 07:28:24;;;;;;;2.78;1.20;;;;;;;3.75;70.96;101518.47;5041100;28;20134;-47
2023/03/03 07:30:52;;;;;;;4.03;1.13;;;;;;;3.78;71.54;101515.22;5037449;28;20450;-48
2023/03/03 07:33:27;;;;;;;1.77;0.73;;;;;;;3.79;71.05;101517.84;5041696;28;20128;-46
2023/03/03 07:35:57;;;;;;;2.97;0.95;;;;;;;3.83;71.47;101516.31;5038783;28;20094;-46
2023/03/03 07:38:42;;;;;;;3.58;1.70;;;;;;;3.83;71.05;101514.63;5045755;28;20840;-49
2023/03/03 07:41:13;;;;;;;2.00;0.80;;;;;;;3.88;71.62;101521.66;5042356;28;20104;-51
2023/03/03 07:43:49;;;;;;;4.13;1.35;;;;;;;3.89;70.76;101523.41;5053111;28;20119;-47
2023/03/03 07:48:59;;;;;;;2.22;1.10;;;;;;;3.93;71.30;101530.44;5035171;28;20767;-51
2023/03/03 07:51:40;;;;;;;1.75;0.90;;;;;;;3.94;70.77;101533.09;5035514;28;20092;-48
2023/03/03 07:57:25;;;;;;;5.60;2.65;;;;;;;3.99;71.44;101541.00;5083303;27;20744;-47
2023/03/03 08:02:38;;;;;;;2.80;2.10;;;;;;;4.06;70.93;101537.91;5078135;27;20405;-50
2023/03/03 08:05:28;;;;;;;3.58;2.95;;;;;;;4.03;71.62;101537.78;5077443;28;20044;-52
2023/03/03 08:08:01;;;;;;;;;;;;;;;4.01;71.20;101549.63;5078385;28;20087;-48
2023/03/03 08:13:17;;;;;;;3.33;1.92;;;;;;;4.41;70.51;101539.50;5026957;27;20410;-47
2023/03/03 08:15:47;;;;;;;2.83;1.05;;;;;;;4.27;71.25;101541.44;5011662;28;20050;-49
2023/03/03 08:18:27;;;;;;;2.65;1.45;;;;;;;4.23;71.61;101543.84;5013945;28;20053;-48
2023/03/03 08:20:56;;;;;;;5.97;1.55;;;;;;;4.28;71.40;101549.22;4997943;28;20049;-48
2023/03/03 08:23:23;;;;;;;1.83;1.15;;;;;;;4.29;71.21;101550.09;5014878;28;20076;-48
2023/03/03 08:25:51;;;;;;;2.03;1.33;;;;;;;4.35;71.58;101551.25;5010278;28;20132;-49
2023/03/03 08:28:18;;;;;;;2.17;1.27;;;;;;;4.43;70.75;101548.19;5010702;28;20046;-48
2023/03/03 08:30:45;;;;;;;2.10;1.08;;;;;;;4.49;71.14;101558.72;5008563;28;20080;-48
2023/03/03 08:33:13;;;;;;;2.17;1.98;;;;;;;4.56;71.04;101547.94;5016329;28;20072;-46
2023/03/03 08:35:40;;;;;;;1.48;0.68;;;;;;;4.59;71.44;101553.22;5015547;28;20056;-53
2023/03/03 08:38:09;;;;;;;1.95;1.10;;;;;;;4.66;70.75;101556.06;5020417;28;20053;-47
2023/03/03 08:40:36;;;;;;;2.83;2.03;;;;;;;4.72;70.64;101556.34;5024205;28;20078;-49
2023/03/03 08:43:03;;;;;;;3.22;1.35;;;;;;;4.80;70.93;101565.25;5001175;28;20159;-52
2023/03/03 08:45:30;;;;;;;2.28;1.15;;;;;;;4.91;71.43;101558.06;5016876;28;20049;-45
2023/03/03 08:47:58;;;;;;;2.03;0.98;;;;;;;4.95;70.31;101562.53;5018894;28;20136;-45
2023/03/03 08:50:26;;;;;;;3.85;1.58;;;;;;;5.00;70.80;101563.59;5016379;28;20054;-46
2023/03/03 08:52:52;;;;;;;3.47;1.75;;;;;;;5.05;70.03;101556.09;5018261;28;20128;-47
2023/03/03 08:55:19;;;;;;;3.58;1.55;;;;;;;5.09;70.45;101558.00;5022694;28;20050;-48
2023/03/03 08:57:47;;;;;;;2.90;1.33;;;;;;;5.16;70.22;101568.56;5015674;28;20046;-49
2023/03/03 09:00:16;;;;;;;2.47;1.40;;;;;;;5.23;70.62;101570.56;5016120;28;21177;-49
2023/03/03 09:02:42;;;;;;;2.97;1.35;;;;;;;5.28;69.98;101566.50;5021224;28;20041;-52
2023/03/03 09:05:10;;;;;;;2.30;1.05;;;;;;;5.35;70.62;101565.97;5013164;28;20116;-44
2023/03/03 09:07:38;;;;;;;4.03;2.05;;;;;;;5.39;70.44;101564.41;5015078;28;20045;-45
2023/03/03 09:10:06;;;;;;;3.25;1.70;;;;;;;5.36;69.53;101561.69;5017322;28;20049;-50
2023/03/03 09:12:35;;;;;;;3.42;1.85;;;;;;;5.36;68.94;101566.84;5014359;28;20588;-47
2023/03/03 09:17:57;;;;;;;7.50;3.78;;;;;;;5.35;68.93;101563.41;5040923;28;20444;-48
2023/03/03 09:23:29;;;;;;;4.82;2.25;;;;;;;5.36;69.39;101567.72;5098433;27;20960;-50
2023/03/03 09:25:57;;;;;;;6.78;2.10;;;;;;;5.43;68.33;101568.00;5049244;28;20045;-46
2023/03/03 09:28:28;;;;;;;5.28;2.40;;;;;;;5.45;69.17;101568.94;5055478;28;20098;-49
2023/03/03 09:30:59;;;;;;;6.18;2.30;;;;;;;5.51;68.92;101556.34;5057345;28;20110;-50
2023/03/03 09:36:19;;;;;;;5.80;3.97;;;;;;;5.60;68.65;101572.16;5059113;27;20380;-51
2023/03/03 09:38:47;;;;;;;5.80;2.83;;;;;;;5.65;67.60;101570.63;4996973;28;20708;-49
2023/03/03 09:49:32;;;;;;;5.55;2.55;;;;;;;5.87;67.70;101571.53;5069694;27;20410;-50
2023/03/03 10:00:27;;;;;;;6.82;3.47;;;;;;;6.12;66.20;101577.72;5030361;28;20399;-50
2023/03/03 10:05:42;;;;;;;2.78;1.65;;;;;;;6.23;65.55;101575.59;5080670;27;20398;-51
2023/03/03 10:11:00;;;;;;;11.25;4.85;;;;;;;6.39;66.17;101576.19;5065007;27;20412;-47
2023/03/03 10:19:01;;;;;;;8.73;2.95;;;;;;;6.75;65.60;101585.28;5056532;27;20398;-50
2023/03/03 10:21:38;;;;;;;6.82;3.28;;;;;;;6.72;64.69;101588.59;5024504;28;20619;-49
2023/03/03 10:32:25;;;;;;;4.60;2.80;;;;;;;6.64;64.03;101593.47;5013707;27;20414;-49
2023/03/03 10:35:32;;;;;;;5.47;2.83;;;;;;;6.60;63.64;101594.16;5024831;28;20053;-48
2023/03/03 10:40:48;;;;;;;4.75;2.47;;;;;;;6.58;62.93;101590.66;5036783;27;20910;-47
2023/03/03 10:43:32;;;;;;;2.38;1.08;;;;;;;6.52;62.32;101588.72;5033507;28;20448;-46
2023/03/03 10:52:18;;;;;;;8.60;5.05;;;;;;;6.35;62.34;101592.34;5056285;27;20418;-49
2023/03/03 10:57:57;;;;;;;8.82;4.15;;;;;;;6.30;62.78;101597.28;5049065;27;20396;-45
2023/03/03 11:00:58;;;;;;;6.95;3.58;;;;;;;6.25;64.68;101604.81;5023741;28;20057;-48
2023/03/03 11:03:53;;;;;;;9.77;3.53;;;;;;;6.26;63.87;101600.56;5041010;28;20045;-52
2023/03/03 11:09:36;;;;;;;7.07;3.13;;;;;;;6.30;63.35;101602.44;5068435;27;20890;-48
2023/03/03 11:20:59;;;;;;;6.13;3.45;;;;;;;6.40;63.69;101599.41;5043437;27;20417;-50
2023/03/03 11:26:32;;;;;;;3.53;3.13;;;;;;;6.53;64.54;101605.03;5150157;27;20396;-49
2023/03/03 11:31:56;;;;;;;2.17;1.35;;;;;;;6.58;63.46;101608.66;5031091;27;20761;-47
2023/03/03 11:34:49;;;;;;;4.03;1.70;;;;;;;6.59;62.71;101613.03;5014423;28;20046;-53
2023/03/03 11:37:25;;;;;;;3.80;2.03;;;;;;;6.57;63.25;101622.38;5036933;28;20042;-52
2023/03/03 11:39:55;;;;;;;5.03;2.63;;;;;;;6.59;63.69;101619.84;5014072;28;20116;-49
2023/03/03 11:45:05;;;;;;;3.90;3.30;;;;;;;6.57;62.04;101612.06;5101956;27;20392;-52
2023/03/03 11:47:41;;;;;;;5.45;4.10;;;;;;;6.54;62.55;101612.84;5041893;28;20080;-52
2023/03/03 11:50:19;;;;;;;4.95;2.30;;;;;;;6.54;63.30;101623.13;5082045;28;20490;-53
2023/03/03 11:55:32;;;;;;;3.55;1.75;;;;;;;6.53;63.29;101621.38;5036176;27;20473;-51
2023/03/03 12:00:57;;;;;;;5.78;1.70;;;;;;;6.48;63.37;101614.28;5038461;27;20887;-52
2023/03/03 12:19:53;;;;;;;3.15;2.85;;;;;;;6.56;63.54;101615.47;5009866;27;20413;-54
2023/03/03 12:22:30;;;;;;;3.17;2.88;;;;;;;6.56;64.43;101618.03;4985963;28;20057;-58
2023/03/03 12:28:05;;;;;;;2.65;1.20;;;;;;;6.58;64.16;101615.53;5032154;28;20414;-56
2023/03/03 12:41:42;;;;;;;2.75;2.55;;;;;;;6.48;63.14;101606.56;5095279;27;20378;-57
2023/03/03 12:44:23;;;;;;;2.53;2.00;;;;;;;6.46;64.69;101600.47;5031030;28;20053;-56
2023/03/03 12:47:17;;;;;;;3.13;1.80;;;;;;;6.40;64.09;101604.56;5036814;28;20057;-54
2023/03/03 12:50:17;;;;;;;4.65;1.77;;;;;;;6.37;63.98;101599.28;5034620;28;20053;-55
2023/03/03 12:53:23;;;;;;;2.92;2.38;;;;;;;6.33;64.16;101592.28;5052148;28;20072;-57
2023/03/03 12:56:12;;;;;;;2.88;2.40;;;;;;;6.27;64.21;101594.59;5049526;28;20128;-56
2023/03/03 13:07:14;;;;;;;3.53;2.20;;;;;;;6.35;64.05;101600.91;5033514;27;20434;-53
2023/03/03 13:15:09;;;;;;;3.00;1.70;;;;;;;6.40;63.60;101594.28;5089420;27;20393;-50
2023/03/03 13:17:48;;;;;;;2.90;1.25;;;;;;;6.39;64.85;101592.50;5034957;28;20245;-53
2023/03/03 13:25:54;;;;;;;2.20;1.02;;;;;;;6.44;65.20;101590.09;5007840;27;20403;-55
2023/03/03 13:28:32;;;;;;;1.98;1.15;;;;;;;6.46;63.72;101588.50;4984114;28;20057;-54
2023/03/03 13:31:08;;;;;;;2.13;1.05;;;;;;;6.48;64.72;101580.84;4979979;28;20992;-55
2023/03/03 13:33:35;;;;;;;1.90;0.80;;;;;;;6.51;64.53;101580.91;5007190;28;20038;-52
2023/03/03 13:36:07;;;;;;;2.92;1.52;;;;;;;6.54;64.60;101575.91;4980582;28;20566;-57
2023/03/03 13:38:40;;;;;;;2.70;1.67;;;;;;;6.55;63.83;101580.22;4978138;28;20623;-55
2023/03/03 13:41:16;;;;;;;4.55;1.13;;;;;;;6.53;64.24;101579.31;4980888;28;20057;-54
2023/03/03 13:44:05;;;;;;;2.33;1.17;;;;;;;6.51;64.37;101568.94;4979886;28;20078;-53
2023/03/03 13:57:29;;;;;;;2.10;1.10;;;;;;;6.61;63.54;101559.88;5040694;28;20766;-55
2023/03/03 14:14:24;;;;;;;3.03;2.35;;;;;;;6.65;63.40;101554.00;5003378;28;20967;-55
2023/03/03 14:16:57;;;;;;;1.70;1.17;;;;;;;6.65;64.12;101558.28;5002389;28;20074;-56
2023/03/03 14:19:47;;;;;;;2.33;1.20;;;;;;;6.61;64.04;101554.72;4999517;28;20201;-55
2023/03/03 14:22:22;;;;;;;2.70;1.10;;;;;;;6.63;63.59;101553.09;5019612;28;20066;-54
2023/03/03 14:41:16;;;;;;;2.35;1.13;;;;;;;6.53;64.70;101558.72;5049653;27;20409;-57
2023/03/03 14:43:56;;;;;;;1.40;0.65;;;;;;;6.52;64.27;101564.69;5035005;28;20045;-56
2023/03/03 14:49:03;;;;;;;3.03;0.82;;;;;;;6.59;64.57;101548.66;5055529;27;20405;-54
2023/03/03 14:54:18;;;;;;;2.90;2.15;;;;;;;6.73;64.85;101543.13;5071495;27;20905;-52
2023/03/03 14:56:59;;;;;;;4.22;2.78;;;;;;;6.79;64.63;101543.38;5035146;28;20939;-58
2023/03/03 14:59:26;;;;;;;2.45;1.77;;;;;;;6.88;63.57;101546.28;5032063;28;20084;-55
2023/03/03 15:05:12;;;;;;;3.05;1.70;;;;;;;7.02;63.00;101538.16;5064554;27;20754;-55
2023/03/03 15:07:39;;;;;;;4.07;2.10;;;;;;;7.10;63.80;101530.72;5058221;28;20044;-54
2023/03/03 15:10:06;;;;;;;2.83;2.40;;;;;;;7.13;62.77;101529.09;5057079;28;20078;-58
2023/03/03 15:12:36;;;;;;;2.08;1.88;;;;;;;7.19;63.70;101525.88;5055116;28;20059;-58
2023/03/03 15:17:43;;;;;;;3.20;2.90;;;;;;;7.22;62.87;101527.72;5101103;27;20397;-55
2023/03/03 15:25:58;;;;;;;2.63;2.05;;;;;;;7.22;62.37;101525.13;5022598;27;20695;-57